createdAt,value
2017-08-25T00:11:36.910Z,73.33
2017-08-25T00:31:37.242Z,93.03
2017-08-25T00:51:37.700Z,76.11
2017-08-25T01:11:38.277Z,87.04
2017-08-25T01:31:38.571Z,96.67
2017-08-25T01:51:39.104Z,90.75
2017-08-25T02:11:39.565Z,99.74
2017-08-25T02:31:40.030Z,91.72
2017-08-25T02:51:40.377Z,98.69
2017-08-25T03:11:40.919Z,76.51
2017-08-25T03:46:41.553Z,70.92
2017-08-25T04:05:58.673Z,60.58
2017-08-25T04:25:58.204Z,79.52
2017-08-25T04:45:58.730Z,60.52
2017-08-25T05:05:59.165Z,84.21
2017-08-25T05:25:59.724Z,81.78
2017-08-25T05:46:00.225Z,100.00
2017-08-25T06:06:00.735Z,72.16
2017-08-25T06:26:01.263Z,31.18
2017-08-25T06:46:01.725Z,27.19
2017-08-25T07:06:02.270Z,24.88
2017-08-25T07:26:02.880Z,53.42
2017-08-25T07:46:03.187Z,35.05
2017-08-25T08:06:03.676Z,40.21
2017-08-25T08:26:04.168Z,50.60
2017-08-25T08:46:04.634Z,55.30
2017-08-25T09:06:05.071Z,57.84
2017-08-25T09:26:05.533Z,20.05
2017-08-25T09:46:06.002Z,26.13
2017-08-25T10:06:06.421Z,39.82
2017-08-25T10:26:06.824Z,52.68
2017-08-25T10:46:07.368Z,21.00
2017-08-25T11:06:07.917Z,26.96
2017-08-25T11:31:08.535Z,5.20
2017-08-25T11:51:08.966Z,61.46
2017-08-25T12:11:09.478Z,99.47
2017-08-25T12:31:09.997Z,52.06
2017-08-25T12:51:10.510Z,54.89
2017-08-25T13:11:10.994Z,78.16
2017-08-25T13:31:11.545Z,99.99
2017-08-25T13:51:11.995Z,100.00
2017-08-25T14:11:12.551Z,100.00
2017-08-25T14:31:13.029Z,100.00
2017-08-25T14:51:13.491Z,100.00
2017-08-25T15:11:14.014Z,100.00
2017-08-25T15:31:14.517Z,100.00
2017-08-25T15:51:15.109Z,100.00
2017-08-25T16:11:15.514Z,100.00
2017-08-25T16:31:16.060Z,100.00
2017-08-25T16:51:16.583Z,100.00
2017-08-25T17:11:17.072Z,100.00
2017-08-25T17:31:17.619Z,100.00
2017-08-25T17:51:18.161Z,100.00
2017-08-25T18:11:18.716Z,100.00
2017-08-25T18:36:19.411Z,100.00
2017-08-25T19:17:04.858Z,74.32
2017-08-25T19:37:05.355Z,94.13
2017-08-25T19:57:05.775Z,38.95
2017-08-25T20:17:06.184Z,54.86
2017-08-25T20:37:06.548Z,56.11
2017-08-25T20:57:07.002Z,74.87
2017-08-25T21:17:07.326Z,65.99
2017-08-25T21:42:07.911Z,93.08
2017-08-25T22:02:08.388Z,84.71
2017-08-25T22:22:08.903Z,86.07
2017-08-25T22:42:09.410Z,80.61
2017-08-25T23:02:09.761Z,74.64
2017-08-25T23:22:10.275Z,58.32
2017-08-25T23:47:10.853Z,97.87
